地図

経路データ

SID SEASON NUMBER BASIN SUBBASIN NAME ISO_TIME NATURE LAT LON WMO_WIND WMO_PRES WMO_AGENCY TRACK_TYPE DIST2LAND LANDFALL IFLAG USA_AGENCY USA_ATCF_ID USA_LAT USA_LON USA_RECORD USA_STATUS USA_WIND USA_PRES USA_SSHS USA_R34_NE USA_R34_SE USA_R34_SW USA_R34_NW USA_R50_NE USA_R50_SE USA_R50_SW USA_R50_NW USA_R64_NE USA_R64_SE USA_R64_SW USA_R64_NW USA_POCI USA_ROCI USA_RMW USA_EYE TOKYO_LAT TOKYO_LON TOKYO_GRADE TOKYO_WIND TOKYO_PRES TOKYO_R50_DIR TOKYO_R50_LONG TOKYO_R50_SHORT TOKYO_R30_DIR TOKYO_R30_LONG TOKYO_R30_SHORT TOKYO_LAND CMA_LAT CMA_LON CMA_CAT CMA_WIND CMA_PRES HKO_LAT HKO_LON HKO_CAT HKO_WIND HKO_PRES NEWDELHI_LAT NEWDELHI_LON NEWDELHI_GRADE NEWDELHI_WIND NEWDELHI_PRES NEWDELHI_CI NEWDELHI_DP NEWDELHI_POCI REUNION_LAT REUNION_LON REUNION_TYPE REUNION_WIND REUNION_PRES REUNION_TNUM REUNION_CI REUNION_RMW REUNION_R34_NE REUNION_R34_SE REUNION_R34_SW REUNION_R34_NW REUNION_R50_NE REUNION_R50_SE REUNION_R50_SW REUNION_R50_NW REUNION_R64_NE REUNION_R64_SE REUNION_R64_SW REUNION_R64_NW BOM_LAT BOM_LON BOM_TYPE BOM_WIND BOM_PRES BOM_TNUM BOM_CI BOM_RMW BOM_R34_NE BOM_R34_SE BOM_R34_SW BOM_R34_NW BOM_R50_NE BOM_R50_SE BOM_R50_SW BOM_R50_NW BOM_R64_NE BOM_R64_SE BOM_R64_SW BOM_R64_NW BOM_ROCI BOM_POCI BOM_EYE BOM_POS_METHOD BOM_PRES_METHOD NADI_LAT NADI_LON NADI_CAT NADI_WIND NADI_PRES WELLINGTON_LAT WELLINGTON_LON WELLINGTON_WIND WELLINGTON_PRES DS824_LAT DS824_LON DS824_STAGE DS824_WIND DS824_PRES TD9636_LAT TD9636_LON TD9636_STAGE TD9636_WIND TD9636_PRES TD9635_LAT TD9635_LON TD9635_WIND TD9635_PRES TD9635_ROCI NEUMANN_LAT NEUMANN_LON NEUMANN_CLASS NEUMANN_WIND NEUMANN_PRES MLC_LAT MLC_LON MLC_CLASS MLC_WIND MLC_PRES USA_GUST BOM_GUST BOM_GUST_PER REUNION_GUST REUNION_GUST_PER USA_SEAHGT USA_SEARAD_NE USA_SEARAD_SE USA_SEARAD_SW USA_SEARAD_NW STORM_SPEED STORM_DIR
1946021S12061 1946 6 SI MM NOT_NAMED 1946-01-21 06:00:00 NR -12.3000 61.3000 reunion main 953 939 _____O________ -1 -12.3000 61.3000 99 9.90000 3 234
1946021S12061 1946 6 SI MM NOT_NAMED 1946-01-21 09:00:00 NR -12.3808 61.1883 main 939 924 _____P________ -1 -12.3808 61.1883 99 3 234
1946021S12061 1946 6 SI MM NOT_NAMED 1946-01-21 12:00:00 NR -12.4610 61.0753 main 924 920 _____P________ -1 -12.4610 61.0753 99 3 234
1946021S12061 1946 6 SI MM NOT_NAMED 1946-01-21 15:00:00 NR -12.5401 60.9598 main 920 902 _____P________ -1 -12.5401 60.9598 99 3 236
1946021S12061 1946 6 SI MM NOT_NAMED 1946-01-21 18:00:00 NR -12.6175 60.8404 main 902 887 _____P________ -1 -12.6175 60.8404 99 3 237
1946021S12061 1946 6 SI MM NOT_NAMED 1946-01-21 21:00:00 NR -12.6928 60.7160 main 887 873 _____P________ -1 -12.6928 60.7160 99 3 239
1946021S12061 1946 6 SI MM NOT_NAMED 1946-01-22 00:00:00 NR -12.7653 60.5853 main 873 869 _____P________ -1 -12.7653 60.5853 99 3 242
1946021S12061 1946 6 SI MM NOT_NAMED 1946-01-22 03:00:00 NR -12.8346 60.4470 main 866 852 _____P________ -1 -12.8346 60.4470 99 3 244
1946021S12061 1946 6 SI MM NOT_NAMED 1946-01-22 06:00:00 NR -12.9000 60.3000 reunion main 852 838 _____O________ -1 -12.9000 60.3000 99 9.90000 3 247
1946021S12061 1946 6 SI MM NOT_NAMED 1946-01-22 09:00:00 NR -12.9616 60.1434 main 834 831 _____P________ -1 -12.9616 60.1434 99 3 249
1946021S12061 1946 6 SI MM NOT_NAMED 1946-01-22 12:00:00 NR -13.0216 59.9784 main 831 814 _____P________ -1 -13.0216 59.9784 99 4 250
1946021S12061 1946 6 SI MM NOT_NAMED 1946-01-22 15:00:00 NR -13.0827 59.8065 main 814 809 _____P________ -1 -13.0827 59.8065 99 4 250
1946021S12061 1946 6 SI MM NOT_NAMED 1946-01-22 18:00:00 NR -13.1475 59.6294 main 809 795 _____P________ -1 -13.1475 59.6294 99 4 249
1946021S12061 1946 6 SI MM NOT_NAMED 1946-01-22 21:00:00 NR -13.2190 59.4487 main 793 779 _____P________ -1 -13.2190 59.4487 99 4 247
1946021S12061 1946 6 SI MM NOT_NAMED 1946-01-23 00:00:00 NR -13.2997 59.2658 main 779 764 _____P________ -1 -13.2997 59.2658 99 4 244
1946021S12061 1946 6 SI MM NOT_NAMED 1946-01-23 03:00:00 NR -13.3925 59.0824 main 764 749 _____P________ -1 -13.3925 59.0824 99 4 241
1946021S12061 1946 6 SI MM NOT_NAMED 1946-01-23 06:00:00 NR -13.5000 58.9000 reunion main 749 735 _____O________ -1 -13.5000 58.9000 99 9.90000 4 236
1946021S12061 1946 6 SI MM NOT_NAMED 1946-01-23 09:00:00 NR -13.6396 58.7100 main 735 710 _____P________ -1 -13.6396 58.7100 99 5 232
1946021S12061 1946 6 SI MM NOT_NAMED 1946-01-23 12:00:00 NR -13.7951 58.5181 main 710 685 _____P________ -1 -13.7951 58.5181 99 5 229
1946021S12061 1946 6 SI MM NOT_NAMED 1946-01-23 15:00:00 NR -13.9619 58.3273 main 685 673 _____P________ -1 -13.9619 58.3273 99 5 227
1946021S12061 1946 6 SI MM NOT_NAMED 1946-01-23 18:00:00 NR -14.1352 58.1408 main 672 649 _____P________ -1 -14.1352 58.1408 99 5 226
1946021S12061 1946 6 SI MM NOT_NAMED 1946-01-23 21:00:00 NR -14.3104 57.9617 main 649 626 _____P________ -1 -14.3104 57.9617 99 5 224
1946021S12061 1946 6 SI MM NOT_NAMED 1946-01-24 00:00:00 NR -14.4827 57.7931 main 626 615 _____P________ -1 -14.4827 57.7931 99 5 223
1946021S12061 1946 6 SI MM NOT_NAMED 1946-01-24 03:00:00 NR -14.6474 57.6381 main 615 593 _____P________ -1 -14.6474 57.6381 99 4 222
1946021S12061 1946 6 SI MM NOT_NAMED 1946-01-24 06:00:00 NR -14.8000 57.5000 reunion main 593 581 _____O________ -1 -14.8000 57.5000 99 9.90000 3 225
1946021S12061 1946 6 SI MM NOT_NAMED 1946-01-24 09:00:00 NR -14.8905 57.3892 main 581 571 _____P________ -1 -14.8905 57.3892 99 3 230
1946021S12061 1946 6 SI MM NOT_NAMED 1946-01-24 12:00:00 NR -14.9666 57.2956 main 571 571 _____P________ -1 -14.9666 57.2956 99 2 229
1946021S12061 1946 6 SI MM NOT_NAMED 1946-01-24 15:00:00 NR -15.0367 57.2157 main 571 560 _____P________ -1 -15.0367 57.2157 99 2 225
1946021S12061 1946 6 SI MM NOT_NAMED 1946-01-24 18:00:00 NR -15.1096 57.1461 main 561 549 _____P________ -1 -15.1096 57.1461 99 2 219
1946021S12061 1946 6 SI MM NOT_NAMED 1946-01-24 21:00:00 NR -15.1938 57.0833 main 549 539 _____P________ -1 -15.1938 57.0833 99 2 213
1946021S12061 1946 6 SI MM NOT_NAMED 1946-01-25 00:00:00 NR -15.2979 57.0237 main 539 528 _____P________ -1 -15.2979 57.0237 99 3 206
1946021S12061 1946 6 SI MM NOT_NAMED 1946-01-25 03:00:00 NR -15.4304 56.9638 main 528 507 _____P________ -1 -15.4304 56.9638 99 3 201
1946021S12061 1946 6 SI MM NOT_NAMED 1946-01-25 06:00:00 NR -15.6000 56.9000 reunion main 507 486 _____O________ -1 -15.6000 56.9000 99 9.90000 4 201
1946021S12061 1946 6 SI MM NOT_NAMED 1946-01-25 09:00:00 NR -15.8240 56.8042 main 486 455 _____P________ -1 -15.8240 56.8042 99 5 202
1946021S12061 1946 6 SI MM NOT_NAMED 1946-01-25 12:00:00 NR -16.0827 56.7046 main 455 424 _____P________ -1 -16.0827 56.7046 99 6 199
1946021S12061 1946 6 SI MM NOT_NAMED 1946-01-25 15:00:00 NR -16.3714 56.6043 main 424 394 _____P________ -1 -16.3714 56.6043 99 6 197
1946021S12061 1946 6 SI MM NOT_NAMED 1946-01-25 18:00:00 NR -16.6854 56.5063 main 394 365 _____P________ -1 -16.6854 56.5063 99 7 196
1946021S12061 1946 6 SI MM NOT_NAMED 1946-01-25 21:00:00 NR -17.0199 56.4137 main 365 327 _____P________ -1 -17.0199 56.4137 99 7 194
1946021S12061 1946 6 SI MM NOT_NAMED 1946-01-26 00:00:00 NR -17.3703 56.3297 main 327 296 _____P________ -1 -17.3703 56.3297 99 7 192
1946021S12061 1946 6 SI MM NOT_NAMED 1946-01-26 03:00:00 NR -17.7319 56.2574 main 296 262 _____P________ -1 -17.7319 56.2574 99 7 190
1946021S12061 1946 6 SI MM NOT_NAMED 1946-01-26 06:00:00 NR -18.1000 56.2000 reunion main 262 234 _____O________ -1 -18.1000 56.2000 99 9.90000 7 189
1946021S12061 1946 6 SI MM NOT_NAMED 1946-01-26 09:00:00 NR -18.4611 56.1411 main 231 206 _____P________ -1 -18.4611 56.1411 99 7 187
1946021S12061 1946 6 SI MM NOT_NAMED 1946-01-26 12:00:00 NR -18.8340 56.0937 main 206 177 _____P________ -1 -18.8340 56.0937 99 8 186
1946021S12061 1946 6 SI MM NOT_NAMED 1946-01-26 15:00:00 NR -19.2147 56.0606 main 177 159 _____P________ -1 -19.2147 56.0606 99 8 183
1946021S12061 1946 6 SI MM NOT_NAMED 1946-01-26 18:00:00 NR -19.5994 56.0442 main 159 116 _____P________ -1 -19.5994 56.0442 99 8 0
1946021S12061 1946 6 SI MM NOT_NAMED 1946-01-26 21:00:00 NR -19.9842 56.0472 main 116 88 _____P________ -1 -19.9842 56.0472 99 8 178
1946021S12061 1946 6 SI MM NOT_NAMED 1946-01-27 00:00:00 NR -20.3652 56.0724 main 78 53 _____P________ -1 -20.3652 56.0724 99 8 175
1946021S12061 1946 6 SI MM NOT_NAMED 1946-01-27 03:00:00 NR -20.7384 56.1224 main 53 38 _____P________ -1 -20.7384 56.1224 99 7 171
1946021S12061 1946 6 SI MM NOT_NAMED 1946-01-27 06:00:00 NR -21.1000 56.2000 reunion main 41 41 _____O________ -1 -21.1000 56.2000 99 9.90000 7 167
1946021S12061 1946 6 SI MM NOT_NAMED 1946-01-27 09:00:00 NR -21.4336 56.2909 main 52 52 _____P________ -1 -21.4336 56.2909 99 7 164
1946021S12061 1946 6 SI MM NOT_NAMED 1946-01-27 12:00:00 NR -21.7565 56.4092 main 83 83 _____P________ -1 -21.7565 56.4092 99 7 159
1946021S12061 1946 6 SI MM NOT_NAMED 1946-01-27 15:00:00 NR -22.0709 56.5532 main 121 121 _____P________ -1 -22.0709 56.5532 99 7 155
1946021S12061 1946 6 SI MM NOT_NAMED 1946-01-27 18:00:00 NR -22.3793 56.7213 main 154 154 _____P________ -1 -22.3793 56.7213 99 7 152
1946021S12061 1946 6 SI MM NOT_NAMED 1946-01-27 21:00:00 NR -22.6840 56.9117 main 193 193 _____P________ -1 -22.6840 56.9117 99 7 149
1946021S12061 1946 6 SI MM NOT_NAMED 1946-01-28 00:00:00 NR -22.9874 57.1227 main 232 232 _____P________ -1 -22.9874 57.1227 99 7 146
1946021S12061 1946 6 SI MM NOT_NAMED 1946-01-28 03:00:00 NR -23.2920 57.3527 main 277 277 _____P________ -1 -23.2920 57.3527 99 8 144
1946021S12061 1946 6 SI MM NOT_NAMED 1946-01-28 06:00:00 NR -23.6000 57.6000 reunion main 316 316 _____O________ -1 -23.6000 57.6000 99 9.90000 8 144
1946021S12061 1946 6 SI MM NOT_NAMED 1946-01-28 09:00:00 NR -23.9575 57.8781 main 370 370 _____P________ -1 -23.9575 57.8781 99 9 144
1946021S12061 1946 6 SI MM NOT_NAMED 1946-01-28 12:00:00 NR -24.3216 58.1808 main 415 415 _____P________ -1 -24.3216 58.1808 99 9 142
1946021S12061 1946 6 SI MM NOT_NAMED 1946-01-28 15:00:00 NR -24.6842 58.4990 main 469 469 _____P________ -1 -24.6842 58.4990 99 9 141
1946021S12061 1946 6 SI MM NOT_NAMED 1946-01-28 18:00:00 NR -25.0375 58.8238 main 514 514 _____P________ -1 -25.0375 58.8238 99 9 140
1946021S12061 1946 6 SI MM NOT_NAMED 1946-01-28 21:00:00 NR -25.3734 59.1459 main 566 566 _____P________ -1 -25.3734 59.1459 99 9 139
1946021S12061 1946 6 SI MM NOT_NAMED 1946-01-29 00:00:00 NR -25.6843 59.4557 main 609 609 _____P________ -1 -25.6843 59.4557 99 8 138
1946021S12061 1946 6 SI MM NOT_NAMED 1946-01-29 03:00:00 NR -25.9624 59.7437 main 647 647 _____P________ -1 -25.9624 59.7437 99 7 136
1946021S12061 1946 6 SI MM NOT_NAMED 1946-01-29 06:00:00 NR -26.2000 60.0000 reunion main 678 678 _____O________ -1 -26.2000 60.0000 99 9.90000 6 135
1946021S12061 1946 6 SI MM NOT_NAMED 1946-01-29 09:00:00 NR -26.3919 60.2172 main 706 706 _____P________ -1 -26.3919 60.2172 99 5 134
1946021S12061 1946 6 SI MM NOT_NAMED 1946-01-29 12:00:00 NR -26.5419 60.3979 main 724 724 _____P________ -1 -26.5419 60.3979 99 4 132
1946021S12061 1946 6 SI MM NOT_NAMED 1946-01-29 15:00:00 NR -26.6561 60.5469 main 749 749 _____P________ -1 -26.6561 60.5469 99 3 129
1946021S12061 1946 6 SI MM NOT_NAMED 1946-01-29 18:00:00 NR -26.7405 60.6694 main 757 757 _____P________ -1 -26.7405 60.6694 99 2 126
1946021S12061 1946 6 SI MM NOT_NAMED 1946-01-29 21:00:00 NR -26.8012 60.7707 main 771 771 _____P________ -1 -26.8012 60.7707 99 2 122
1946021S12061 1946 6 SI MM NOT_NAMED 1946-01-30 00:00:00 NR -26.8440 60.8560 main 775 775 _____P________ -1 -26.8440 60.8560 99 2 118
1946021S12061 1946 6 SI MM NOT_NAMED 1946-01-30 03:00:00 NR -26.8750 60.9307 main 785 785 _____P________ -1 -26.8750 60.9307 99 1 113
1946021S12061 1946 6 SI MM NOT_NAMED 1946-01-30 06:00:00 NR -26.9000 61.0000 reunion main 790 _____O________ -1 -26.9000 61.0000 99 9.90000 1 117

IBTrACS Databaseについて

本データベースは、米国NOAAが公開する1842年以降の世界の熱帯低気圧のベストトラックデータアーカイブInternational Best Track Archive for Climate Stewardship (IBTrACS)を、ウェブで閲覧しやすい形式に変換したものです。

最終更新日:2021-10-21